createdAt,value
2022-11-13T00:02:08.750Z,25.47
2022-11-13T00:04:57.455Z,25.48
2022-11-13T00:07:46.274Z,25.44
2022-11-13T00:10:34.979Z,25.44
2022-11-13T00:13:29.036Z,25.42
2022-11-13T00:16:20.722Z,25.41
2022-11-13T00:19:10.704Z,25.42
2022-11-13T00:22:00.255Z,25.39
2022-11-13T00:24:48.894Z,25.39
2022-11-13T00:27:37.548Z,25.44
2022-11-13T00:30:26.188Z,25.42
2022-11-13T00:33:26.500Z,25.42
2022-11-13T00:36:26.724Z,25.41
2022-11-13T00:39:15.541Z,25.39
2022-11-13T00:42:04.360Z,25.39
2022-11-13T00:44:53.218Z,25.37
2022-11-13T00:47:41.930Z,25.35
2022-11-13T00:50:30.534Z,25.36
2022-11-13T00:53:20.821Z,25.39
2022-11-13T00:56:09.891Z,25.38
2022-11-13T00:58:58.845Z,25.36
2022-11-13T01:01:47.648Z,25.36
2022-11-13T01:04:36.328Z,25.34
2022-11-13T01:07:24.891Z,25.33
2022-11-13T01:10:14.947Z,25.32
2022-11-13T01:13:04.073Z,25.33
2022-11-13T01:15:52.726Z,25.31
2022-11-13T01:18:42.764Z,25.31
2022-11-13T01:21:31.568Z,25.32
2022-11-13T01:24:20.216Z,25.31
2022-11-13T01:27:10.374Z,25.30
2022-11-13T01:29:58.950Z,25.31
2022-11-13T01:32:47.713Z,25.28
2022-11-13T01:35:36.361Z,25.27
2022-11-13T01:38:25.141Z,25.29
2022-11-13T01:41:23.111Z,25.29
2022-11-13T01:44:15.484Z,25.27
2022-11-13T01:47:04.969Z,25.23
2022-11-13T01:49:55.955Z,25.24
2022-11-13T01:52:44.726Z,25.22
2022-11-13T01:55:33.352Z,25.23
2022-11-13T01:58:22.216Z,25.25
2022-11-13T02:01:12.182Z,25.22
2022-11-13T02:04:00.824Z,25.22
2022-11-13T02:06:51.550Z,25.21
2022-11-13T02:09:42.648Z,25.23
2022-11-13T02:12:35.371Z,25.24
2022-11-13T02:15:26.602Z,25.25
2022-11-13T02:18:17.180Z,25.24
2022-11-13T02:21:12.417Z,25.24
2022-11-13T02:24:13.830Z,25.23
2022-11-13T02:27:05.100Z,25.22
2022-11-13T02:29:53.741Z,25.18
2022-11-13T02:32:45.370Z,25.18
2022-11-13T02:35:35.769Z,25.20
2022-11-13T02:38:24.379Z,25.19
2022-11-13T02:41:14.342Z,25.20
2022-11-13T02:44:02.922Z,25.19
2022-11-13T02:46:51.551Z,25.20
2022-11-13T02:49:40.143Z,25.19
2022-11-13T02:52:29.034Z,25.18
2022-11-13T02:55:17.865Z,25.18
2022-11-13T02:58:07.817Z,25.18
2022-11-13T03:00:56.495Z,25.19
2022-11-13T03:03:57.171Z,25.17
2022-11-13T03:06:46.628Z,25.15
2022-11-13T03:09:35.277Z,25.14
2022-11-13T03:12:23.889Z,25.15
2022-11-13T03:15:14.130Z,25.11
2022-11-13T03:18:04.863Z,25.11
2022-11-13T03:20:54.182Z,25.09
2022-11-13T03:23:45.007Z,25.11
2022-11-13T03:26:33.642Z,25.09
2022-11-13T03:29:22.197Z,25.10
2022-11-13T03:32:12.371Z,25.15
2022-11-13T03:35:00.910Z,25.14
2022-11-13T03:37:49.505Z,25.12
2022-11-13T03:40:39.281Z,25.10
2022-11-13T03:43:28.268Z,25.11
2022-11-13T03:46:16.935Z,25.10
2022-11-13T03:49:06.906Z,25.10
2022-11-13T03:51:55.470Z,25.09
2022-11-13T03:54:44.097Z,25.11
2022-11-13T03:57:33.126Z,25.11
2022-11-13T04:00:21.963Z,25.10
2022-11-13T04:03:10.744Z,25.08
2022-11-13T04:06:00.744Z,25.09
2022-11-13T04:08:49.281Z,25.09
2022-11-13T04:11:37.915Z,25.11
2022-11-13T04:14:26.547Z,25.06
2022-11-13T04:17:15.145Z,25.05
2022-11-13T04:20:03.822Z,25.05
2022-11-13T04:22:53.841Z,25.06
2022-11-13T04:25:42.416Z,25.07
2022-11-13T04:28:31.350Z,25.06
2022-11-13T04:31:20.216Z,25.06
2022-11-13T04:34:10.070Z,25.07
2022-11-13T04:36:58.704Z,25.07
2022-11-13T04:39:48.765Z,25.09
2022-11-13T04:42:51.715Z,25.06
2022-11-13T04:45:40.437Z,25.07
2022-11-13T04:48:29.484Z,25.07
2022-11-13T04:51:18.405Z,25.05
2022-11-13T04:54:07.148Z,25.04
2022-11-13T04:56:57.313Z,25.04
2022-11-13T04:59:45.905Z,25.03
2022-11-13T05:02:34.728Z,25.05
2022-11-13T05:05:23.417Z,25.03
2022-11-13T05:08:12.760Z,25.04
2022-11-13T05:11:01.730Z,25.02
2022-11-13T05:13:51.836Z,25.02
2022-11-13T05:16:40.764Z,25.00
2022-11-13T05:19:29.398Z,25.02
2022-11-13T05:22:18.007Z,25.00
2022-11-13T05:25:07.025Z,25.00
2022-11-13T05:27:55.634Z,25.02
2022-11-13T05:30:45.663Z,25.01
2022-11-13T05:33:34.276Z,25.01
2022-11-13T05:36:23.743Z,25.02
2022-11-13T05:39:12.959Z,25.02
2022-11-13T05:42:01.547Z,25.00
2022-11-13T05:44:50.144Z,25.01
2022-11-13T05:47:40.142Z,24.99
2022-11-13T05:50:28.855Z,24.98
2022-11-13T05:53:17.487Z,24.99
2022-11-13T05:56:08.026Z,24.98
2022-11-13T05:58:57.086Z,24.99
2022-11-13T06:01:45.875Z,24.98
2022-11-13T06:04:36.277Z,24.98
2022-11-13T06:07:24.932Z,24.97
2022-11-13T06:10:13.666Z,24.95
2022-11-13T06:13:02.298Z,24.99
2022-11-13T06:15:51.040Z,24.98
2022-11-13T06:18:40.262Z,24.94
2022-11-13T06:21:32.217Z,24.96
2022-11-13T06:24:20.842Z,24.99
2022-11-13T06:27:09.494Z,24.99
2022-11-13T06:29:58.282Z,24.96
2022-11-13T06:32:47.004Z,24.97
2022-11-13T06:35:35.848Z,24.98
2022-11-13T06:38:26.048Z,24.96
2022-11-13T06:41:16.848Z,24.96
2022-11-13T06:44:05.716Z,24.95
2022-11-13T06:46:54.440Z,24.95
2022-11-13T06:49:43.197Z,24.95
2022-11-13T06:52:31.808Z,24.95
2022-11-13T06:55:21.898Z,24.98
2022-11-13T06:58:10.577Z,24.99
2022-11-13T07:00:59.440Z,25.00
2022-11-13T07:03:48.120Z,24.97
2022-11-13T07:06:40.404Z,24.99
2022-11-13T07:09:29.300Z,24.98
2022-11-13T07:12:19.242Z,25.02
2022-11-13T07:15:08.565Z,24.97
2022-11-13T07:17:57.332Z,25.00
2022-11-13T07:20:46.316Z,25.00
2022-11-13T07:23:37.045Z,25.04
2022-11-13T07:26:26.024Z,25.02
2022-11-13T07:29:16.131Z,25.03
2022-11-13T07:32:04.769Z,25.04
2022-11-13T07:34:53.330Z,25.02
2022-11-13T07:37:42.011Z,25.01
2022-11-13T07:40:30.651Z,25.02
2022-11-13T07:43:19.465Z,25.03
2022-11-13T07:46:09.528Z,25.05
2022-11-13T07:48:58.185Z,25.08
2022-11-13T07:51:46.890Z,25.10
2022-11-13T07:54:35.620Z,25.14
2022-11-13T07:57:24.375Z,25.16
2022-11-13T08:00:13.986Z,25.21
2022-11-13T08:03:08.009Z,25.22
2022-11-13T08:06:01.973Z,25.26
2022-11-13T08:08:50.642Z,25.31
2022-11-13T08:11:39.446Z,25.37
2022-11-13T08:14:28.020Z,25.51
2022-11-13T08:17:16.747Z,25.69
2022-11-13T08:20:08.149Z,25.56
2022-11-13T08:22:58.651Z,25.77
2022-11-13T08:25:47.723Z,25.87
2022-11-13T08:28:37.896Z,25.92
2022-11-13T08:31:26.979Z,26.01
2022-11-13T08:34:15.708Z,25.72
2022-11-13T08:37:05.753Z,25.74
2022-11-13T08:39:54.460Z,25.68
2022-11-13T08:42:43.248Z,25.65
2022-11-13T08:45:32.606Z,25.67
2022-11-13T08:48:21.419Z,25.59
2022-11-13T08:51:10.086Z,25.59
2022-11-13T08:54:00.071Z,25.47
2022-11-13T08:56:55.645Z,25.44
2022-11-13T08:59:44.776Z,25.44
2022-11-13T09:02:33.497Z,25.44
2022-11-13T09:05:22.103Z,25.34
2022-11-13T09:08:11.008Z,25.36
2022-11-13T09:11:04.927Z,25.23
2022-11-13T09:13:53.805Z,25.22
2022-11-13T09:16:42.548Z,25.28
2022-11-13T09:19:31.317Z,25.48
2022-11-13T09:22:19.926Z,25.55
2022-11-13T09:25:09.346Z,25.61
2022-11-13T09:28:01.309Z,25.76
2022-11-13T09:30:49.979Z,25.82
2022-11-13T09:33:38.718Z,25.82
2022-11-13T09:36:27.296Z,25.88
2022-11-13T09:39:17.032Z,25.89
2022-11-13T09:42:13.085Z,25.97
2022-11-13T09:45:07.226Z,25.99
2022-11-13T09:47:56.370Z,26.03
2022-11-13T09:50:45.127Z,26.09
2022-11-13T09:53:39.514Z,26.15
2022-11-13T09:56:31.690Z,26.16
2022-11-13T09:59:26.837Z,26.15
2022-11-13T10:02:23.146Z,26.29
2022-11-13T10:05:15.668Z,26.27
2022-11-13T10:08:08.738Z,26.30
2022-11-13T10:11:03.551Z,26.39
2022-11-13T10:13:55.020Z,26.44
2022-11-13T10:16:46.885Z,26.52
2022-11-13T10:19:41.333Z,26.55
2022-11-13T10:22:34.592Z,26.56
2022-11-13T10:25:25.100Z,26.59
2022-11-13T10:28:48.149Z,26.54
2022-11-13T10:31:26.255Z,26.57
2022-11-13T10:34:15.846Z,26.64
2022-11-13T10:37:17.625Z,26.71
2022-11-13T10:40:07.091Z,26.75
2022-11-13T10:42:55.924Z,26.79
2022-11-13T10:45:57.463Z,26.83
2022-11-13T10:48:46.134Z,26.82
2022-11-13T10:51:35.966Z,26.85
2022-11-13T10:54:28.834Z,26.86
2022-11-13T10:57:26.973Z,26.86
2022-11-13T11:00:24.578Z,26.90
2022-11-13T11:03:17.836Z,26.91
2022-11-13T11:06:07.153Z,26.95
2022-11-13T11:08:55.905Z,26.99
2022-11-13T11:12:18.846Z,26.97
2022-11-13T11:15:21.880Z,26.78
2022-11-13T11:18:22.814Z,26.87
2022-11-13T11:21:14.677Z,26.82
2022-11-13T11:24:07.561Z,26.90
2022-11-13T11:27:01.377Z,26.82
2022-11-13T11:29:53.759Z,26.91
2022-11-13T11:32:44.873Z,27.04
2022-11-13T11:35:40.965Z,27.07
2022-11-13T11:38:34.908Z,27.07
2022-11-13T11:41:29.574Z,27.09
2022-11-13T11:44:24.794Z,27.08
2022-11-13T11:47:16.741Z,27.12
2022-11-13T11:50:08.659Z,27.14
2022-11-13T11:53:02.040Z,27.10
2022-11-13T11:56:01.105Z,27.14
2022-11-13T11:59:06.963Z,27.14
2022-11-13T12:02:20.173Z,27.14
2022-11-13T12:05:20.688Z,27.12
2022-11-13T12:08:17.553Z,27.17
2022-11-13T12:11:13.323Z,27.11
2022-11-13T12:14:07.572Z,27.12
2022-11-13T12:17:17.163Z,27.13
2022-11-13T12:20:18.830Z,27.07
2022-11-13T12:23:17.010Z,27.13
2022-11-13T12:26:11.039Z,27.09
2022-11-13T12:29:01.982Z,27.01
2022-11-13T12:31:58.053Z,26.93
2022-11-13T12:34:51.540Z,26.94
2022-11-13T12:37:44.402Z,26.92
2022-11-13T12:40:41.212Z,26.82
2022-11-13T12:43:44.833Z,26.87
2022-11-13T12:46:37.982Z,26.90
2022-11-13T12:49:32.101Z,26.97
2022-11-13T12:52:24.395Z,26.91
2022-11-13T12:55:28.163Z,26.99
2022-11-13T12:58:21.530Z,26.99
2022-11-13T13:01:18.636Z,26.99
2022-11-13T13:04:45.189Z,27.06
2022-11-13T13:07:50.187Z,26.98
2022-11-13T13:10:50.614Z,27.00
2022-11-13T13:13:44.993Z,27.04
2022-11-13T13:16:33.662Z,26.97
2022-11-13T13:19:28.381Z,26.89
2022-11-13T13:22:27.054Z,26.76
2022-11-13T13:25:28.122Z,26.83
2022-11-13T13:28:21.553Z,26.72
2022-11-13T13:31:32.942Z,26.74
2022-11-13T13:34:33.728Z,26.73
2022-11-13T13:37:31.720Z,26.78
2022-11-13T13:40:31.320Z,26.83
2022-11-13T13:43:34.309Z,26.64
2022-11-13T13:46:24.599Z,26.58
2022-11-13T13:49:16.233Z,26.61
2022-11-13T13:52:05.389Z,26.54
2022-11-13T13:54:54.193Z,26.50
2022-11-13T13:57:44.766Z,26.44
2022-11-13T14:00:33.462Z,26.50
2022-11-13T14:03:23.544Z,26.44
2022-11-13T14:06:21.200Z,26.47
2022-11-13T14:09:10.955Z,26.46
2022-11-13T14:12:00.883Z,26.51
2022-11-13T14:14:53.588Z,26.57
2022-11-13T14:17:42.263Z,26.60
2022-11-13T14:20:43.085Z,26.61
2022-11-13T14:23:34.283Z,26.58
2022-11-13T14:26:23.006Z,26.51
2022-11-13T14:29:23.303Z,26.46
2022-11-13T14:32:15.473Z,26.38
2022-11-13T14:35:05.096Z,26.34
2022-11-13T14:37:55.393Z,26.27
2022-11-13T14:40:48.427Z,26.16
2022-11-13T14:43:36.979Z,26.15
2022-11-13T14:46:31.047Z,26.08
2022-11-13T14:49:30.175Z,26.06
2022-11-13T14:52:27.197Z,26.05
2022-11-13T14:55:23.341Z,26.37
2022-11-13T14:58:15.016Z,26.73
2022-11-13T15:01:16.237Z,26.98
2022-11-13T15:04:04.929Z,27.02
2022-11-13T15:06:56.456Z,27.03
2022-11-13T15:09:46.370Z,26.86
2022-11-13T15:12:35.036Z,26.99
2022-11-13T15:15:27.485Z,27.05
2022-11-13T15:18:18.932Z,27.02
2022-11-13T15:21:08.198Z,27.26
2022-11-13T15:24:01.104Z,27.19
2022-11-13T15:26:49.870Z,27.17
2022-11-13T15:29:38.623Z,27.34
2022-11-13T15:32:28.993Z,27.24
2022-11-13T15:35:20.200Z,27.16
2022-11-13T15:38:08.934Z,27.24
2022-11-13T15:40:59.062Z,27.42
2022-11-13T15:43:50.053Z,27.57
2022-11-13T15:46:38.819Z,27.68
2022-11-13T15:49:27.659Z,27.69
2022-11-13T15:52:16.447Z,27.72
2022-11-13T15:55:06.318Z,27.66
2022-11-13T15:57:57.886Z,27.42
2022-11-13T16:00:46.696Z,27.35
2022-11-13T16:03:40.053Z,27.53
2022-11-13T16:06:30.381Z,27.52
2022-11-13T16:09:19.426Z,27.51
2022-11-13T16:12:08.484Z,27.42
2022-11-13T16:14:58.585Z,27.15
2022-11-13T16:17:49.476Z,27.03
2022-11-13T16:20:38.473Z,26.97
2022-11-13T16:23:27.684Z,26.92
2022-11-13T16:26:19.328Z,27.22
2022-11-13T16:29:18.527Z,27.29
2022-11-13T16:32:14.266Z,27.31
2022-11-13T16:35:02.998Z,27.31
2022-11-13T16:37:51.738Z,27.05
2022-11-13T16:40:41.656Z,27.27
2022-11-13T16:43:30.963Z,27.23
2022-11-13T16:46:22.240Z,27.14
2022-11-13T16:49:19.059Z,27.04
2022-11-13T16:52:08.460Z,26.87
2022-11-13T16:55:00.994Z,26.81
2022-11-13T16:57:52.664Z,26.93
2022-11-13T17:00:41.532Z,27.07
2022-11-13T17:03:30.755Z,26.95
2022-11-13T17:06:26.609Z,27.11
2022-11-13T17:09:15.865Z,27.09
2022-11-13T17:12:04.700Z,27.06
2022-11-13T17:15:10.266Z,27.13
2022-11-13T17:17:59.249Z,27.22
2022-11-13T17:20:51.855Z,27.31
2022-11-13T17:23:41.912Z,27.30
2022-11-13T17:26:31.278Z,27.18
2022-11-13T17:29:19.855Z,27.19
2022-11-13T17:32:08.524Z,27.53
2022-11-13T17:34:57.197Z,27.41
2022-11-13T17:37:45.842Z,27.44
2022-11-13T17:40:36.361Z,27.07
2022-11-13T17:43:25.001Z,26.93
2022-11-13T17:46:15.675Z,26.78
2022-11-13T17:49:04.589Z,26.86
2022-11-13T17:51:53.214Z,26.95
2022-11-13T17:54:41.880Z,26.95
2022-11-13T17:57:33.302Z,26.88
2022-11-13T18:00:21.940Z,26.86
2022-11-13T18:03:10.521Z,26.81
2022-11-13T18:05:59.196Z,26.68
2022-11-13T18:08:47.973Z,26.55
2022-11-13T18:11:36.761Z,26.53
2022-11-13T18:14:26.792Z,26.47
2022-11-13T18:17:15.373Z,26.40
2022-11-13T18:20:04.055Z,26.38
2022-11-13T18:22:52.693Z,26.35
2022-11-13T18:25:41.345Z,26.34
2022-11-13T18:28:29.937Z,26.36
2022-11-13T18:31:21.210Z,26.32
2022-11-13T18:34:12.694Z,26.35
2022-11-13T18:37:01.353Z,26.30
2022-11-13T18:39:50.101Z,26.27
2022-11-13T18:42:38.784Z,26.26
2022-11-13T18:45:27.541Z,26.22
2022-11-13T18:48:17.696Z,26.58
2022-11-13T18:51:10.790Z,26.77
2022-11-13T18:53:59.723Z,26.97
2022-11-13T18:56:48.325Z,27.09
2022-11-13T18:59:37.058Z,27.11
2022-11-13T19:02:25.795Z,27.10
2022-11-13T19:05:16.782Z,27.22
2022-11-13T19:08:05.730Z,27.22
2022-11-13T19:10:54.394Z,27.26
2022-11-13T19:13:44.582Z,27.28
2022-11-13T19:16:34.781Z,26.85
2022-11-13T19:19:24.991Z,26.57
2022-11-13T19:22:14.978Z,26.42
2022-11-13T19:25:03.601Z,26.40
2022-11-13T19:27:54.109Z,26.35
2022-11-13T19:30:46.440Z,26.30
2022-11-13T19:33:35.409Z,26.22
2022-11-13T19:36:24.895Z,26.22
2022-11-13T19:39:15.648Z,26.19
2022-11-13T19:42:04.239Z,26.18
2022-11-13T19:44:52.882Z,26.16
2022-11-13T19:47:41.466Z,26.19
2022-11-13T19:50:30.195Z,26.21
2022-11-13T19:53:18.909Z,26.24
2022-11-13T19:56:09.620Z,26.14
2022-11-13T19:58:58.458Z,26.23
2022-11-13T20:01:47.142Z,26.23
2022-11-13T20:04:35.736Z,26.19
2022-11-13T20:07:24.594Z,26.18
2022-11-13T20:10:13.244Z,26.25
2022-11-13T20:13:03.219Z,26.19
2022-11-13T20:15:55.146Z,26.25
2022-11-13T20:18:44.649Z,26.22
2022-11-13T20:21:33.281Z,26.32
2022-11-13T20:24:22.180Z,26.28
2022-11-13T20:27:10.879Z,26.40
2022-11-13T20:30:04.669Z,26.32
2022-11-13T20:32:53.331Z,26.28
2022-11-13T20:35:45.046Z,26.24
2022-11-13T20:38:34.228Z,26.21
2022-11-13T20:41:24.064Z,26.22
2022-11-13T20:44:14.593Z,26.19
2022-11-13T20:47:04.769Z,26.23
2022-11-13T20:49:53.354Z,26.13
2022-11-13T20:52:42.005Z,26.14
2022-11-13T20:55:30.645Z,26.20
2022-11-13T20:58:19.282Z,26.17
2022-11-13T21:01:09.271Z,26.16
2022-11-13T21:03:59.555Z,26.17
2022-11-13T21:06:48.399Z,26.19
2022-11-13T21:09:37.067Z,26.22
2022-11-13T21:12:25.696Z,26.12
2022-11-13T21:15:14.328Z,26.14
2022-11-13T21:18:02.949Z,26.14
2022-11-13T21:20:52.989Z,26.16
2022-11-13T21:23:41.849Z,26.11
2022-11-13T21:26:30.445Z,26.09
2022-11-13T21:29:19.001Z,26.18
2022-11-13T21:32:07.849Z,26.10
2022-11-13T21:34:59.175Z,26.13
2022-11-13T21:37:49.268Z,26.16
2022-11-13T21:40:38.488Z,26.14
2022-11-13T21:43:27.053Z,26.14
2022-11-13T21:46:15.938Z,26.13
2022-11-13T21:49:07.039Z,26.12
2022-11-13T21:51:55.655Z,26.18
2022-11-13T21:54:45.543Z,26.08
2022-11-13T21:57:34.200Z,26.24
2022-11-13T22:00:22.976Z,26.68
2022-11-13T22:03:11.739Z,26.73
2022-11-13T22:06:17.135Z,26.72
2022-11-13T22:09:08.021Z,26.97
2022-11-13T22:11:58.117Z,27.05
2022-11-13T22:14:46.831Z,27.05
2022-11-13T22:17:35.458Z,27.12
2022-11-13T22:20:24.206Z,27.09
2022-11-13T22:23:12.839Z,27.21
2022-11-13T22:26:03.194Z,27.17
2022-11-13T22:28:54.090Z,27.20
2022-11-13T22:31:44.792Z,27.30
2022-11-13T22:34:33.485Z,27.30
2022-11-13T22:37:22.181Z,27.33
2022-11-13T22:40:11.836Z,27.30
2022-11-13T22:43:03.309Z,27.29
2022-11-13T22:45:53.345Z,27.31
2022-11-13T22:48:43.983Z,27.43
2022-11-13T22:51:35.090Z,27.44
2022-11-13T22:54:23.848Z,27.52
2022-11-13T22:57:12.560Z,27.47
2022-11-13T23:00:09.263Z,27.41
2022-11-13T23:03:01.630Z,27.42
2022-11-13T23:05:50.337Z,27.54
2022-11-13T23:08:40.313Z,27.41
2022-11-13T23:11:31.517Z,27.46
2022-11-13T23:14:20.198Z,27.43
2022-11-13T23:17:13.687Z,27.33
2022-11-13T23:20:03.761Z,26.92
2022-11-13T23:22:52.391Z,26.71
2022-11-13T23:25:41.782Z,26.56
2022-11-13T23:28:31.202Z,26.48
2022-11-13T23:31:20.090Z,26.43
2022-11-13T23:34:08.742Z,26.40
2022-11-13T23:36:58.753Z,26.35
2022-11-13T23:39:47.408Z,26.31
2022-11-13T23:42:54.234Z,26.24
2022-11-13T23:45:44.291Z,26.19
2022-11-13T23:48:32.930Z,26.22
2022-11-13T23:51:21.610Z,26.21
2022-11-13T23:54:11.882Z,26.26
2022-11-13T23:57:00.568Z,26.24
2022-11-13T23:59:49.487Z,26.27
